Wetterstation Vordersexau
Wetterdaten: September 2011
Datum Temp. A. Feuchte A. Luftdruck Regen Wind Richtung Taupunkt Windchill Windben
01.09.2011 20,5 C 68 % 1012,1 hPa 0,0 l/m 0,2 km/h NO 13,6 C 20,5 C 0,1 km/h
02.09.2011 21,8 C 72 % 1012,1 hPa 0,0 l/m 0,2 km/h O-NO 16,0 C 21,8 C 0,1 km/h
03.09.2011 24,2 C 68 % 1010,9 hPa 0,0 l/m 4,0 km/h SO 17,1 C 23,8 C 2,2 km/h
04.09.2011 20,4 C 79 % 1010,7 hPa 0,0 l/m 2,8 km/h SO 16,6 C 20,1 C 1,6 km/h
05.09.2011 18,1 C 72 % 1016,6 hPa 0,0 l/m 6,3 km/h SW 12,7 C 17,2 C 3,5 km/h
06.09.2011 17,1 C 65 % 1020,7 hPa 0,0 l/m 8,2 km/h SO 9,7 C 16,2 C 4,6 km/h
07.09.2011 17,7 C 71 % 1015,3 hPa 0,0 l/m 18,5 km/h W-SW 12,4 C 14,0 C 10,3 km/h
08.09.2011 17,1 C 70 % 1013,7 hPa 1,1 l/m 14,2 km/h W-SW 11,4 C 14,5 C 7,9 km/h
09.09.2011 21,1 C 73 % 1012,7 hPa 0,0 l/m 8,0 km/h SO 16,1 C 20,0 C 4,4 km/h
10.09.2011 23,9 C 65 % 1010,7 hPa 0,0 l/m 1,9 km/h O-NO 16,0 C 23,8 C 1,0 km/h
11.09.2011 22,1 C 68 % 1011,3 hPa 3,6 l/m 5,0 km/h S-SO 15,1 C 21,7 C 2,8 km/h
12.09.2011 20,1 C 65 % 1015,4 hPa 0,0 l/m 11,9 km/h W 12,7 C 18,5 C 6,6 km/h
13.09.2011 21,3 C 69 % 1014,6 hPa 0,0 l/m 16,3 km/h W-SW 15,3 C 19,1 C 9,0 km/h
14.09.2011 19,6 C 66 % 1017,4 hPa 1,8 l/m 2,7 km/h N-NO 12,2 C 19,3 C 1,5 km/h
15.09.2011 16,6 C 67 % 1018,1 hPa 0,0 l/m 2,5 km/h SO 9,6 C 16,4 C 1,4 km/h
16.09.2011 17,1 C 71 % 1015,2 hPa 0,0 l/m 0,6 km/h NO 11,3 C 17,1 C 0,3 km/h
17.09.2011 19,7 C 75 % 1011,7 hPa 1,4 l/m 6,9 km/h W-SW 15,0 C 18,8 C 3,8 km/h
18.09.2011 13,6 C 78 % 1007,3 hPa 3,9 l/m 9,0 km/h SW 9,8 C 11,7 C 5,0 km/h
19.09.2011 12,5 C 79 % 1012,2 hPa 1,4 l/m 1,3 km/h SO 8,8 C 12,5 C 0,8 km/h
20.09.2011 15,3 C 67 % 1021,8 hPa 0,4 l/m 2,9 km/h SO 8,5 C 14,8 C 1,6 km/h
21.09.2011 15,8 C 66 % 1019,3 hPa 0,0 l/m 0,3 km/h NO 8,3 C 15,7 C 0,2 km/h
22.09.2011 15,8 C 69 % 1018,8 hPa 0,0 l/m 0,2 km/h NO 9,5 C 15,8 C 0,1 km/h
23.09.2011 16,9 C 69 % 1016,5 hPa 0,0 l/m 1,7 km/h O-NO 10,7 C 16,8 C 0,9 km/h
24.09.2011 17,2 C 67 % 1014,0 hPa 0,0 l/m 0,0 km/h NO 10,2 C 17,2 C 0,0 km/h
25.09.2011 19,3 C 66 % 1017,4 hPa 0,0 l/m 0,8 km/h O-NO 11,7 C 19,1 C 0,4 km/h
26.09.2011 19,3 C 65 % 1021,9 hPa 0,0 l/m 0,1 km/h O-NO 11,5 C 19,3 C 0,0 km/h
27.09.2011 19,6 C 67 % 1025,4 hPa 0,0 l/m 1,2 km/h NO 12,4 C 19,6 C 0,7 km/h
28.09.2011 18,4 C 67 % 1024,9 hPa 0,0 l/m 1,5 km/h N-NO 11,3 C 18,3 C 0,8 km/h
29.09.2011 18,5 C 69 % 1024,0 hPa 0,0 l/m 0,3 km/h NO 12,1 C 18,5 C 0,2 km/h
30.09.2011 18,2 C 68 % 1023,6 hPa 0,0 l/m 0,5 km/h NO 11,4 C 18,2 C 0,3 km/h
Min-Datum 20.09.11 28.09.11 18.09.11 7 Tage 01.09.11 - 20.09.11 20.09.11 01.09.11
Min-Zeit 06:30 17:30 06:30 - 00:30 - 06:30 22:30 00:30
Minimum 6,1 C 24 % 1004,1 hPa - 0,0 km/h - 3,6 C 2,3 C 0,0 km/h
Max-Datum 03.09.11 01.09.11 27.09.11 18.09.11 07.09.11 - 02.09.11 03.09.11 07.09.11
Max-Zeit 16:30 06:30 11:30 08:30 04:30 - 18:30 16:30 04:30
Maximum 37,6 C 85 % 1026,5 hPa 3,9 l/m 36,3 km/h
W-SW
- 21,1 C 37,6 C 20,2 km/h
W-SW
Durchschnitt 18,6 C 69 % 1016,2 hPa #13,5 l/m 4,3 km/h SO 12,3 C 18,0 C 2,4 km/h

Durchschnitt Minimum Temp.11,3 C
Durchschnitt Maximum Temp.29,3 C
www.sexauwetter.de